Terminal Aerodrome Forecast
Issued by NWS

Home | Current Version | Previous Version | Text Only | Print | Product List | Glossary On
Versions: 1 2 3 4 5 6 7 8 9 10 11 12 13 14 15 16 17 18 19 20 21 22 23 24 25 26 27 28 29 30 31 32 33
000
FTUS43 KDMX 031728
TAFMCW
TAF
KMCW 031728Z 0318/0418 17013KT P6SM BKN015
     FM032200 15004KT P6SM SCT028 BKN080
     FM041000 19009KT P6SM OVC021
     FM041500 23010KT P6SM VCTS SCT014CB OVC025=

USA.gov is the U.S. government's official web portal to all federal, state and local government web resources and services.